sensor_id;sensor_type;location;lat;lon;timestamp;temperature;humidity
44427;DHT22;30133;47.866;-4.222;2022-10-31T00:01:00;22.40;61.30
44427;DHT22;30133;47.866;-4.222;2022-10-31T00:03:26;22.30;61.20
44427;DHT22;30133;47.866;-4.222;2022-10-31T00:05:52;22.30;61.20
44427;DHT22;30133;47.866;-4.222;2022-10-31T00:08:23;22.30;61.20
44427;DHT22;30133;47.866;-4.222;2022-10-31T00:10:48;22.30;61.20
44427;DHT22;30133;47.866;-4.222;2022-10-31T00:13:14;22.30;61.30
44427;DHT22;30133;47.866;-4.222;2022-10-31T00:15:41;22.30;61.20
44427;DHT22;30133;47.866;-4.222;2022-10-31T00:18:09;22.30;61.20
44427;DHT22;30133;47.866;-4.222;2022-10-31T00:20:38;22.30;61.30
44427;DHT22;30133;47.866;-4.222;2022-10-31T00:23:05;22.30;61.20
44427;DHT22;30133;47.866;-4.222;2022-10-31T00:25:36;22.30;61.30
44427;DHT22;30133;47.866;-4.222;2022-10-31T00:28:05;22.30;61.20
44427;DHT22;30133;47.866;-4.222;2022-10-31T00:30:32;22.30;61.20
44427;DHT22;30133;47.866;-4.222;2022-10-31T00:32:58;22.30;61.20
44427;DHT22;30133;47.866;-4.222;2022-10-31T00:35:25;22.30;61.20
44427;DHT22;30133;47.866;-4.222;2022-10-31T00:37:52;22.30;61.20
44427;DHT22;30133;47.866;-4.222;2022-10-31T00:40:19;22.30;61.20
44427;DHT22;30133;47.866;-4.222;2022-10-31T00:42:44;22.30;61.20
44427;DHT22;30133;47.866;-4.222;2022-10-31T00:45:11;22.30;61.20
44427;DHT22;30133;47.866;-4.222;2022-10-31T00:47:37;22.30;61.20
44427;DHT22;30133;47.866;-4.222;2022-10-31T00:50:05;22.30;61.20
44427;DHT22;30133;47.866;-4.222;2022-10-31T00:52:33;22.30;61.20
44427;DHT22;30133;47.866;-4.222;2022-10-31T00:54:59;22.30;61.20
44427;DHT22;30133;47.866;-4.222;2022-10-31T00:57:25;22.30;61.20
44427;DHT22;30133;47.866;-4.222;2022-10-31T00:59:53;22.30;61.20
44427;DHT22;30133;47.866;-4.222;2022-10-31T01:02:18;22.30;61.20
44427;DHT22;30133;47.866;-4.222;2022-10-31T01:04:44;22.30;61.20
44427;DHT22;30133;47.866;-4.222;2022-10-31T01:07:10;22.30;61.20
44427;DHT22;30133;47.866;-4.222;2022-10-31T01:09:38;22.30;61.20
44427;DHT22;30133;47.866;-4.222;2022-10-31T01:12:05;22.30;61.20
44427;DHT22;30133;47.866;-4.222;2022-10-31T01:14:31;22.30;61.20
44427;DHT22;30133;47.866;-4.222;2022-10-31T01:16:56;22.20;61.10
44427;DHT22;30133;47.866;-4.222;2022-10-31T01:19:22;22.30;61.20
44427;DHT22;30133;47.866;-4.222;2022-10-31T01:21:48;22.30;61.20
44427;DHT22;30133;47.866;-4.222;2022-10-31T01:24:14;22.30;61.20
44427;DHT22;30133;47.866;-4.222;2022-10-31T01:26:40;22.30;61.10
44427;DHT22;30133;47.866;-4.222;2022-10-31T01:29:07;22.30;61.20
44427;DHT22;30133;47.866;-4.222;2022-10-31T01:31:36;22.20;61.10
44427;DHT22;30133;47.866;-4.222;2022-10-31T01:34:04;22.30;61.20
44427;DHT22;30133;47.866;-4.222;2022-10-31T01:36:37;22.20;61.10
44427;DHT22;30133;47.866;-4.222;2022-10-31T01:39:10;22.20;61.20
44427;DHT22;30133;47.866;-4.222;2022-10-31T01:41:40;22.20;61.10
44427;DHT22;30133;47.866;-4.222;2022-10-31T01:46:49;22.20;61.20
44427;DHT22;30133;47.866;-4.222;2022-10-31T01:52:02;22.20;61.20
44427;DHT22;30133;47.866;-4.222;2022-10-31T01:54:43;22.20;61.20
44427;DHT22;30133;47.866;-4.222;2022-10-31T01:57:13;22.20;61.20
44427;DHT22;30133;47.866;-4.222;2022-10-31T01:59:45;22.20;61.20
44427;DHT22;30133;47.866;-4.222;2022-10-31T02:02:15;22.20;61.20
44427;DHT22;30133;47.866;-4.222;2022-10-31T02:04:43;22.20;61.10
44427;DHT22;30133;47.866;-4.222;2022-10-31T02:07:32;22.20;61.20
44427;DHT22;30133;47.866;-4.222;2022-10-31T02:10:03;22.20;61.10
44427;DHT22;30133;47.866;-4.222;2022-10-31T02:12:30;22.20;61.10
44427;DHT22;30133;47.866;-4.222;2022-10-31T02:14:57;22.20;61.20
44427;DHT22;30133;47.866;-4.222;2022-10-31T02:17:24;22.20;61.10
44427;DHT22;30133;47.866;-4.222;2022-10-31T02:29:10;22.20;61.10
44427;DHT22;30133;47.866;-4.222;2022-10-31T02:40:24;22.20;61.20
44427;DHT22;30133;47.866;-4.222;2022-10-31T02:48:31;22.20;61.20
44427;DHT22;30133;47.866;-4.222;2022-10-31T02:51:02;22.20;61.20
44427;DHT22;30133;47.866;-4.222;2022-10-31T02:53:36;22.20;61.20
44427;DHT22;30133;47.866;-4.222;2022-10-31T02:56:08;22.10;61.10
44427;DHT22;30133;47.866;-4.222;2022-10-31T02:58:38;22.20;61.10
44427;DHT22;30133;47.866;-4.222;2022-10-31T03:01:27;22.20;61.10
44427;DHT22;30133;47.866;-4.222;2022-10-31T03:07:03;22.20;61.10
44427;DHT22;30133;47.866;-4.222;2022-10-31T03:12:57;22.20;61.20
44427;DHT22;30133;47.866;-4.222;2022-10-31T03:15:30;22.10;61.10
44427;DHT22;30133;47.866;-4.222;2022-10-31T03:18:07;22.10;61.10
44427;DHT22;30133;47.866;-4.222;2022-10-31T03:20:40;22.20;61.20
44427;DHT22;30133;47.866;-4.222;2022-10-31T03:23:12;22.10;61.10
44427;DHT22;30133;47.866;-4.222;2022-10-31T03:25:40;22.10;61.10
44427;DHT22;30133;47.866;-4.222;2022-10-31T03:28:09;22.20;61.10
44427;DHT22;30133;47.866;-4.222;2022-10-31T03:30:40;22.10;61.00
44427;DHT22;30133;47.866;-4.222;2022-10-31T03:33:10;22.10;61.00
44427;DHT22;30133;47.866;-4.222;2022-10-31T03:35:42;22.20;61.10
44427;DHT22;30133;47.866;-4.222;2022-10-31T03:38:11;22.10;61.00
44427;DHT22;30133;47.866;-4.222;2022-10-31T03:40:38;22.10;61.80
44427;DHT22;30133;47.866;-4.222;2022-10-31T03:43:11;22.10;61.00
44427;DHT22;30133;47.866;-4.222;2022-10-31T03:45:45;22.10;61.00
44427;DHT22;30133;47.866;-4.222;2022-10-31T03:48:17;22.10;61.00
44427;DHT22;30133;47.866;-4.222;2022-10-31T03:53:56;22.10;61.00
44427;DHT22;30133;47.866;-4.222;2022-10-31T03:56:37;22.10;61.00
44427;DHT22;30133;47.866;-4.222;2022-10-31T03:59:14;22.10;61.00
44427;DHT22;30133;47.866;-4.222;2022-10-31T04:01:48;22.10;61.00
44427;DHT22;30133;47.866;-4.222;2022-10-31T04:04:16;22.10;61.00
44427;DHT22;30133;47.866;-4.222;2022-10-31T04:06:44;22.10;61.00
44427;DHT22;30133;47.866;-4.222;2022-10-31T04:09:12;22.10;60.90
44427;DHT22;30133;47.866;-4.222;2022-10-31T04:11:46;22.10;61.00
44427;DHT22;30133;47.866;-4.222;2022-10-31T04:14:15;22.10;60.90
44427;DHT22;30133;47.866;-4.222;2022-10-31T04:16:42;22.10;60.90
44427;DHT22;30133;47.866;-4.222;2022-10-31T04:19:10;22.10;60.90
44427;DHT22;30133;47.866;-4.222;2022-10-31T04:21:37;22.10;60.90
44427;DHT22;30133;47.866;-4.222;2022-10-31T04:24:03;22.10;60.90
44427;DHT22;30133;47.866;-4.222;2022-10-31T04:26:29;22.10;60.90
44427;DHT22;30133;47.866;-4.222;2022-10-31T04:28:55;22.10;60.90
44427;DHT22;30133;47.866;-4.222;2022-10-31T04:31:21;22.10;60.90
44427;DHT22;30133;47.866;-4.222;2022-10-31T04:33:47;22.10;60.90
44427;DHT22;30133;47.866;-4.222;2022-10-31T04:36:13;22.10;60.80
44427;DHT22;30133;47.866;-4.222;2022-10-31T04:38:39;22.10;60.90
44427;DHT22;30133;47.866;-4.222;2022-10-31T04:41:05;22.10;60.80
44427;DHT22;30133;47.866;-4.222;2022-10-31T04:43:31;22.10;60.80
44427;DHT22;30133;47.866;-4.222;2022-10-31T04:45:56;22.10;60.80
44427;DHT22;30133;47.866;-4.222;2022-10-31T04:48:22;22.10;60.80
44427;DHT22;30133;47.866;-4.222;2022-10-31T04:50:48;22.10;60.80
44427;DHT22;30133;47.866;-4.222;2022-10-31T04:53:14;22.10;60.80
44427;DHT22;30133;47.866;-4.222;2022-10-31T04:55:40;22.10;60.70
44427;DHT22;30133;47.866;-4.222;2022-10-31T04:58:06;22.10;60.80
44427;DHT22;30133;47.866;-4.222;2022-10-31T05:00:32;22.10;60.80
44427;DHT22;30133;47.866;-4.222;2022-10-31T05:02:58;22.10;60.80
44427;DHT22;30133;47.866;-4.222;2022-10-31T05:05:26;22.10;60.80
44427;DHT22;30133;47.866;-4.222;2022-10-31T05:07:54;22.10;60.80
44427;DHT22;30133;47.866;-4.222;2022-10-31T05:10:25;22.10;60.70
44427;DHT22;30133;47.866;-4.222;2022-10-31T05:12:54;22.10;60.80
44427;DHT22;30133;47.866;-4.222;2022-10-31T05:15:22;22.10;60.80
44427;DHT22;30133;47.866;-4.222;2022-10-31T05:17:49;22.10;60.80
44427;DHT22;30133;47.866;-4.222;2022-10-31T05:20:17;22.10;60.80
44427;DHT22;30133;47.866;-4.222;2022-10-31T05:22:45;22.10;60.80
44427;DHT22;30133;47.866;-4.222;2022-10-31T05:25:13;22.10;60.80
44427;DHT22;30133;47.866;-4.222;2022-10-31T05:27:40;22.10;60.80
44427;DHT22;30133;47.866;-4.222;2022-10-31T05:30:08;22.10;60.80
44427;DHT22;30133;47.866;-4.222;2022-10-31T05:32:41;22.10;60.80
44427;DHT22;30133;47.866;-4.222;2022-10-31T05:35:12;22.10;61.60
44427;DHT22;30133;47.866;-4.222;2022-10-31T05:37:39;22.10;60.80
44427;DHT22;30133;47.866;-4.222;2022-10-31T05:40:07;22.10;60.80
44427;DHT22;30133;47.866;-4.222;2022-10-31T05:42:35;22.00;60.80
44427;DHT22;30133;47.866;-4.222;2022-10-31T05:45:02;22.10;60.80
44427;DHT22;30133;47.866;-4.222;2022-10-31T05:47:32;22.00;60.80
44427;DHT22;30133;47.866;-4.222;2022-10-31T05:49:58;22.10;60.80
44427;DHT22;30133;47.866;-4.222;2022-10-31T05:52:24;22.00;60.80
44427;DHT22;30133;47.866;-4.222;2022-10-31T05:54:50;22.00;60.80
44427;DHT22;30133;47.866;-4.222;2022-10-31T05:57:16;22.00;60.80
44427;DHT22;30133;47.866;-4.222;2022-10-31T05:59:42;22.00;60.80
44427;DHT22;30133;47.866;-4.222;2022-10-31T06:02:08;22.00;60.80
44427;DHT22;30133;47.866;-4.222;2022-10-31T06:04:34;22.00;60.80
44427;DHT22;30133;47.866;-4.222;2022-10-31T06:07:00;22.10;60.80
44427;DHT22;30133;47.866;-4.222;2022-10-31T06:09:26;22.00;60.80
44427;DHT22;30133;47.866;-4.222;2022-10-31T06:11:52;22.00;60.80
44427;DHT22;30133;47.866;-4.222;2022-10-31T06:14:18;22.00;60.80
44427;DHT22;30133;47.866;-4.222;2022-10-31T06:16:44;22.00;60.80
44427;DHT22;30133;47.866;-4.222;2022-10-31T06:19:11;22.00;60.70
44427;DHT22;30133;47.866;-4.222;2022-10-31T06:21:37;22.00;60.70
44427;DHT22;30133;47.866;-4.222;2022-10-31T06:24:04;22.00;60.70
44427;DHT22;30133;47.866;-4.222;2022-10-31T06:26:31;22.00;60.80
44427;DHT22;30133;47.866;-4.222;2022-10-31T06:28:57;22.00;60.70
44427;DHT22;30133;47.866;-4.222;2022-10-31T06:31:23;22.00;60.70
44427;DHT22;30133;47.866;-4.222;2022-10-31T06:33:49;22.00;60.80
44427;DHT22;30133;47.866;-4.222;2022-10-31T06:36:15;22.00;60.70
44427;DHT22;30133;47.866;-4.222;2022-10-31T06:38:41;22.00;60.70
44427;DHT22;30133;47.866;-4.222;2022-10-31T06:41:07;22.00;60.70
44427;DHT22;30133;47.866;-4.222;2022-10-31T06:43:34;22.00;60.70
44427;DHT22;30133;47.866;-4.222;2022-10-31T06:46:04;22.00;60.70
44427;DHT22;30133;47.866;-4.222;2022-10-31T06:48:31;22.00;60.70
44427;DHT22;30133;47.866;-4.222;2022-10-31T06:51:01;22.00;60.70
44427;DHT22;30133;47.866;-4.222;2022-10-31T06:53:28;22.00;60.70
44427;DHT22;30133;47.866;-4.222;2022-10-31T06:55:57;22.00;60.70
44427;DHT22;30133;47.866;-4.222;2022-10-31T06:58:23;22.00;60.70
44427;DHT22;30133;47.866;-4.222;2022-10-31T07:00:50;22.00;60.70
44427;DHT22;30133;47.866;-4.222;2022-10-31T07:03:16;22.00;60.70
44427;DHT22;30133;47.866;-4.222;2022-10-31T07:05:42;22.00;60.70
44427;DHT22;30133;47.866;-4.222;2022-10-31T07:08:11;22.00;60.70
44427;DHT22;30133;47.866;-4.222;2022-10-31T07:10:39;22.00;60.70
44427;DHT22;30133;47.866;-4.222;2022-10-31T07:13:14;22.00;60.70
44427;DHT22;30133;47.866;-4.222;2022-10-31T07:15:41;22.00;60.70
44427;DHT22;30133;47.866;-4.222;2022-10-31T07:18:09;22.00;60.70
44427;DHT22;30133;47.866;-4.222;2022-10-31T07:20:37;22.00;60.80
44427;DHT22;30133;47.866;-4.222;2022-10-31T07:23:03;22.00;60.80
44427;DHT22;30133;47.866;-4.222;2022-10-31T07:25:29;22.00;60.80
44427;DHT22;30133;47.866;-4.222;2022-10-31T07:27:56;22.00;60.70
44427;DHT22;30133;47.866;-4.222;2022-10-31T07:30:22;22.00;60.70
44427;DHT22;30133;47.866;-4.222;2022-10-31T07:32:49;22.00;60.70
44427;DHT22;30133;47.866;-4.222;2022-10-31T07:35:18;22.00;60.70
44427;DHT22;30133;47.866;-4.222;2022-10-31T07:37:49;22.00;60.70
44427;DHT22;30133;47.866;-4.222;2022-10-31T07:40:15;22.00;60.70
44427;DHT22;30133;47.866;-4.222;2022-10-31T07:42:44;22.00;60.70
44427;DHT22;30133;47.866;-4.222;2022-10-31T07:45:13;22.00;60.70
44427;DHT22;30133;47.866;-4.222;2022-10-31T07:47:42;22.00;60.70
44427;DHT22;30133;47.866;-4.222;2022-10-31T07:50:12;22.00;60.70
44427;DHT22;30133;47.866;-4.222;2022-10-31T07:52:40;22.00;60.80
44427;DHT22;30133;47.866;-4.222;2022-10-31T07:55:06;22.00;60.70
44427;DHT22;30133;47.866;-4.222;2022-10-31T07:57:32;22.00;60.70
44427;DHT22;30133;47.866;-4.222;2022-10-31T07:59:58;22.00;60.70
44427;DHT22;30133;47.866;-4.222;2022-10-31T08:02:25;22.00;60.70
44427;DHT22;30133;47.866;-4.222;2022-10-31T08:04:51;22.00;60.70
44427;DHT22;30133;47.866;-4.222;2022-10-31T08:07:18;22.00;60.70
44427;DHT22;30133;47.866;-4.222;2022-10-31T08:09:44;22.00;60.70
44427;DHT22;30133;47.866;-4.222;2022-10-31T08:12:09;22.00;60.70
44427;DHT22;30133;47.866;-4.222;2022-10-31T08:14:35;22.00;60.70
44427;DHT22;30133;47.866;-4.222;2022-10-31T08:17:01;22.00;60.70
44427;DHT22;30133;47.866;-4.222;2022-10-31T08:19:27;22.00;60.70
44427;DHT22;30133;47.866;-4.222;2022-10-31T08:21:53;22.00;60.70
44427;DHT22;30133;47.866;-4.222;2022-10-31T08:24:21;22.00;60.70
44427;DHT22;30133;47.866;-4.222;2022-10-31T08:26:47;22.00;60.70
44427;DHT22;30133;47.866;-4.222;2022-10-31T08:29:15;22.00;60.70
44427;DHT22;30133;47.866;-4.222;2022-10-31T08:31:42;22.00;60.70
44427;DHT22;30133;47.866;-4.222;2022-10-31T08:34:08;22.00;60.70
44427;DHT22;30133;47.866;-4.222;2022-10-31T08:36:34;22.00;60.70
44427;DHT22;30133;47.866;-4.222;2022-10-31T08:39:00;22.00;60.60
44427;DHT22;30133;47.866;-4.222;2022-10-31T08:41:26;22.00;60.60
44427;DHT22;30133;47.866;-4.222;2022-10-31T08:43:52;22.00;60.60
44427;DHT22;30133;47.866;-4.222;2022-10-31T08:46:18;22.00;60.60
44427;DHT22;30133;47.866;-4.222;2022-10-31T08:48:44;22.00;60.70
44427;DHT22;30133;47.866;-4.222;2022-10-31T08:51:12;22.00;60.60
44427;DHT22;30133;47.866;-4.222;2022-10-31T08:53:38;22.00;60.60
44427;DHT22;30133;47.866;-4.222;2022-10-31T08:56:05;22.00;60.60
44427;DHT22;30133;47.866;-4.222;2022-10-31T08:58:31;22.00;60.60
44427;DHT22;30133;47.866;-4.222;2022-10-31T09:00:59;22.00;60.60
44427;DHT22;30133;47.866;-4.222;2022-10-31T09:03:28;22.10;60.60
44427;DHT22;30133;47.866;-4.222;2022-10-31T09:06:00;22.10;60.60
44427;DHT22;30133;47.866;-4.222;2022-10-31T09:08:32;22.10;60.60
44427;DHT22;30133;47.866;-4.222;2022-10-31T09:10:58;22.00;60.60
44427;DHT22;30133;47.866;-4.222;2022-10-31T09:13:25;22.10;60.60
44427;DHT22;30133;47.866;-4.222;2022-10-31T09:15:52;22.10;60.60
44427;DHT22;30133;47.866;-4.222;2022-10-31T09:18:20;22.00;60.60
44427;DHT22;30133;47.866;-4.222;2022-10-31T09:20:48;22.10;60.60
44427;DHT22;30133;47.866;-4.222;2022-10-31T09:23:20;22.10;60.60
44427;DHT22;30133;47.866;-4.222;2022-10-31T09:25:48;22.00;60.60
44427;DHT22;30133;47.866;-4.222;2022-10-31T09:28:16;22.00;60.60
44427;DHT22;30133;47.866;-4.222;2022-10-31T09:30:47;22.00;60.60
44427;DHT22;30133;47.866;-4.222;2022-10-31T09:33:13;22.10;60.60
44427;DHT22;30133;47.866;-4.222;2022-10-31T09:35:40;22.10;60.60
44427;DHT22;30133;47.866;-4.222;2022-10-31T09:38:13;22.10;60.60
44427;DHT22;30133;47.866;-4.222;2022-10-31T09:43:39;22.10;60.60
44427;DHT22;30133;47.866;-4.222;2022-10-31T09:52:36;22.00;60.60
44427;DHT22;30133;47.866;-4.222;2022-10-31T09:57:43;22.00;60.60
44427;DHT22;30133;47.866;-4.222;2022-10-31T10:00:21;22.00;60.70
44427;DHT22;30133;47.866;-4.222;2022-10-31T10:03:07;22.00;60.70
44427;DHT22;30133;47.866;-4.222;2022-10-31T10:06:24;22.00;60.80
44427;DHT22;30133;47.866;-4.222;2022-10-31T10:08:41;22.00;60.80
44427;DHT22;30133;47.866;-4.222;2022-10-31T10:11:31;22.00;60.90
44427;DHT22;30133;47.866;-4.222;2022-10-31T10:17:07;22.10;60.80
44427;DHT22;30133;47.866;-4.222;2022-10-31T10:22:28;22.00;60.90
44427;DHT22;30133;47.866;-4.222;2022-10-31T10:28:13;22.00;61.00
44427;DHT22;30133;47.866;-4.222;2022-10-31T10:33:43;22.00;61.00
44427;DHT22;30133;47.866;-4.222;2022-10-31T10:39:18;22.00;61.10
44427;DHT22;30133;47.866;-4.222;2022-10-31T10:41:50;21.90;61.10
44427;DHT22;30133;47.866;-4.222;2022-10-31T10:44:42;21.90;61.20
44427;DHT22;30133;47.866;-4.222;2022-10-31T10:47:38;21.90;61.20
44427;DHT22;30133;47.866;-4.222;2022-10-31T10:52:47;21.90;61.30
44427;DHT22;30133;47.866;-4.222;2022-10-31T10:58:10;21.90;61.30
44427;DHT22;30133;47.866;-4.222;2022-10-31T11:00:45;21.90;61.40
44427;DHT22;30133;47.866;-4.222;2022-10-31T11:03:14;21.90;61.40
44427;DHT22;30133;47.866;-4.222;2022-10-31T11:05:54;21.90;61.50
44427;DHT22;30133;47.866;-4.222;2022-10-31T11:08:30;21.90;61.40
44427;DHT22;30133;47.866;-4.222;2022-10-31T11:14:00;21.90;61.40
44427;DHT22;30133;47.866;-4.222;2022-10-31T11:16:38;21.90;61.40
44427;DHT22;30133;47.866;-4.222;2022-10-31T11:19:13;22.00;61.40
44427;DHT22;30133;47.866;-4.222;2022-10-31T11:21:42;21.90;61.30
44427;DHT22;30133;47.866;-4.222;2022-10-31T11:26:37;21.90;61.20
44427;DHT22;30133;47.866;-4.222;2022-10-31T11:29:05;21.90;61.10
44427;DHT22;30133;47.866;-4.222;2022-10-31T11:31:52;22.00;61.20
44427;DHT22;30133;47.866;-4.222;2022-10-31T11:34:43;21.90;61.10
44427;DHT22;30133;47.866;-4.222;2022-10-31T11:37:15;22.00;61.20
44427;DHT22;30133;47.866;-4.222;2022-10-31T11:39:45;21.90;61.20
44427;DHT22;30133;47.866;-4.222;2022-10-31T11:42:23;21.90;61.20
44427;DHT22;30133;47.866;-4.222;2022-10-31T11:44:53;21.90;61.20
44427;DHT22;30133;47.866;-4.222;2022-10-31T11:47:30;21.90;61.10
44427;DHT22;30133;47.866;-4.222;2022-10-31T11:50:02;21.90;61.10
44427;DHT22;30133;47.866;-4.222;2022-10-31T11:52:37;21.90;61.10
44427;DHT22;30133;47.866;-4.222;2022-10-31T11:55:37;21.90;61.10
44427;DHT22;30133;47.866;-4.222;2022-10-31T11:58:18;21.90;61.10
44427;DHT22;30133;47.866;-4.222;2022-10-31T12:00:50;21.90;61.10
44427;DHT22;30133;47.866;-4.222;2022-10-31T12:08:34;21.90;61.10
44427;DHT22;30133;47.866;-4.222;2022-10-31T12:17:16;21.90;61.20
44427;DHT22;30133;47.866;-4.222;2022-10-31T12:23:12;21.90;61.30
44427;DHT22;30133;47.866;-4.222;2022-10-31T12:25:51;21.90;61.20
44427;DHT22;30133;47.866;-4.222;2022-10-31T12:31:52;21.90;61.30
44427;DHT22;30133;47.866;-4.222;2022-10-31T12:34:45;21.90;61.30
44427;DHT22;30133;47.866;-4.222;2022-10-31T12:45:56;21.90;61.30
44427;DHT22;30133;47.866;-4.222;2022-10-31T12:57:48;21.90;61.40
44427;DHT22;30133;47.866;-4.222;2022-10-31T13:00:19;21.90;61.40
44427;DHT22;30133;47.866;-4.222;2022-10-31T13:02:59;21.90;61.40
44427;DHT22;30133;47.866;-4.222;2022-10-31T13:05:49;21.90;61.40
44427;DHT22;30133;47.866;-4.222;2022-10-31T13:08:23;21.80;61.30
44427;DHT22;30133;47.866;-4.222;2022-10-31T13:13:54;21.90;61.40
44427;DHT22;30133;47.866;-4.222;2022-10-31T13:16:29;21.90;61.40
44427;DHT22;30133;47.866;-4.222;2022-10-31T13:19:47;21.90;61.40
44427;DHT22;30133;47.866;-4.222;2022-10-31T13:22:17;21.90;61.30
44427;DHT22;30133;47.866;-4.222;2022-10-31T13:30:18;21.90;61.40
44427;DHT22;30133;47.866;-4.222;2022-10-31T13:35:33;21.90;61.40
44427;DHT22;30133;47.866;-4.222;2022-10-31T13:38:33;21.90;61.30
44427;DHT22;30133;47.866;-4.222;2022-10-31T13:44:17;21.90;61.40
44427;DHT22;30133;47.866;-4.222;2022-10-31T13:46:44;21.90;61.40
44427;DHT22;30133;47.866;-4.222;2022-10-31T13:54:37;21.90;61.40
44427;DHT22;30133;47.866;-4.222;2022-10-31T14:00:06;21.90;61.40
44427;DHT22;30133;47.866;-4.222;2022-10-31T14:02:49;21.90;61.50
44427;DHT22;30133;47.866;-4.222;2022-10-31T14:08:00;21.90;61.50
44427;DHT22;30133;47.866;-4.222;2022-10-31T14:13:28;21.90;61.50
44427;DHT22;30133;47.866;-4.222;2022-10-31T14:16:06;21.90;61.40
44427;DHT22;30133;47.866;-4.222;2022-10-31T14:18:47;21.90;61.50
44427;DHT22;30133;47.866;-4.222;2022-10-31T14:21:38;21.90;61.50
44427;DHT22;30133;47.866;-4.222;2022-10-31T14:26:56;21.90;61.50
44427;DHT22;30133;47.866;-4.222;2022-10-31T14:29:29;21.90;61.40
44427;DHT22;30133;47.866;-4.222;2022-10-31T14:34:42;21.90;61.40
44427;DHT22;30133;47.866;-4.222;2022-10-31T14:47:10;21.90;61.80
44427;DHT22;30133;47.866;-4.222;2022-10-31T14:50:18;21.90;61.80
44427;DHT22;30133;47.866;-4.222;2022-10-31T14:52:54;22.00;61.90
44427;DHT22;30133;47.866;-4.222;2022-10-31T14:55:23;22.00;62.00
44427;DHT22;30133;47.866;-4.222;2022-10-31T14:58:02;22.00;62.10
44427;DHT22;30133;47.866;-4.222;2022-10-31T15:00:32;22.00;62.10
44427;DHT22;30133;47.866;-4.222;2022-10-31T15:03:07;22.00;62.10
44427;DHT22;30133;47.866;-4.222;2022-10-31T15:05:42;22.00;62.10
44427;DHT22;30133;47.866;-4.222;2022-10-31T15:08:43;22.00;62.10
44427;DHT22;30133;47.866;-4.222;2022-10-31T15:13:43;22.00;62.40
44427;DHT22;30133;47.866;-4.222;2022-10-31T15:16:12;22.00;62.40
44427;DHT22;30133;47.866;-4.222;2022-10-31T15:18:58;22.00;62.70
44427;DHT22;30133;47.866;-4.222;2022-10-31T15:21:27;22.00;62.70
44427;DHT22;30133;47.866;-4.222;2022-10-31T15:23:56;22.00;63.50
44427;DHT22;30133;47.866;-4.222;2022-10-31T15:26:35;22.00;63.00
44427;DHT22;30133;47.866;-4.222;2022-10-31T15:29:12;22.00;63.20
44427;DHT22;30133;47.866;-4.222;2022-10-31T15:31:52;22.00;63.20
44427;DHT22;30133;47.866;-4.222;2022-10-31T15:34:35;22.00;63.30
44427;DHT22;30133;47.866;-4.222;2022-10-31T15:37:14;22.00;63.40
44427;DHT22;30133;47.866;-4.222;2022-10-31T15:39:42;22.00;63.30
44427;DHT22;30133;47.866;-4.222;2022-10-31T15:42:22;22.00;63.30
44427;DHT22;30133;47.866;-4.222;2022-10-31T15:45:16;22.00;63.20
44427;DHT22;30133;47.866;-4.222;2022-10-31T15:47:48;22.10;63.30
44427;DHT22;30133;47.866;-4.222;2022-10-31T15:53:04;22.10;63.20
44427;DHT22;30133;47.866;-4.222;2022-10-31T15:55:36;22.10;63.20
44427;DHT22;30133;47.866;-4.222;2022-10-31T15:58:11;22.10;63.10
44427;DHT22;30133;47.866;-4.222;2022-10-31T16:00:39;22.10;63.10
44427;DHT22;30133;47.866;-4.222;2022-10-31T16:05:47;22.10;62.70
44427;DHT22;30133;47.866;-4.222;2022-10-31T16:11:17;22.20;62.60
44427;DHT22;30133;47.866;-4.222;2022-10-31T16:16:23;22.20;62.60
44427;DHT22;30133;47.866;-4.222;2022-10-31T16:18:51;22.10;62.60
44427;DHT22;30133;47.866;-4.222;2022-10-31T16:21:27;22.20;62.60
44427;DHT22;30133;47.866;-4.222;2022-10-31T16:24:00;22.20;62.50
44427;DHT22;30133;47.866;-4.222;2022-10-31T16:26:29;22.20;62.50
44427;DHT22;30133;47.866;-4.222;2022-10-31T16:28:57;22.20;62.40
44427;DHT22;30133;47.866;-4.222;2022-10-31T16:31:49;22.20;62.30
44427;DHT22;30133;47.866;-4.222;2022-10-31T16:34:20;22.20;63.10
44427;DHT22;30133;47.866;-4.222;2022-10-31T16:36:47;22.20;62.30
44427;DHT22;30133;47.866;-4.222;2022-10-31T16:39:13;22.20;62.30
44427;DHT22;30133;47.866;-4.222;2022-10-31T16:41:42;22.10;62.20
44427;DHT22;30133;47.866;-4.222;2022-10-31T16:44:24;22.20;62.00
44427;DHT22;30133;47.866;-4.222;2022-10-31T16:47:15;22.20;62.10
44427;DHT22;30133;47.866;-4.222;2022-10-31T16:49:43;22.20;62.00
44427;DHT22;30133;47.866;-4.222;2022-10-31T16:52:11;22.20;61.90
44427;DHT22;30133;47.866;-4.222;2022-10-31T16:54:36;22.20;61.80
44427;DHT22;30133;47.866;-4.222;2022-10-31T16:57:04;22.20;61.80
44427;DHT22;30133;47.866;-4.222;2022-10-31T16:59:32;22.20;61.70
44427;DHT22;30133;47.866;-4.222;2022-10-31T17:02:03;22.20;61.80
44427;DHT22;30133;47.866;-4.222;2022-10-31T17:04:29;22.20;61.70
44427;DHT22;30133;47.866;-4.222;2022-10-31T17:06:55;22.20;61.70
44427;DHT22;30133;47.866;-4.222;2022-10-31T17:09:21;22.20;61.70
44427;DHT22;30133;47.866;-4.222;2022-10-31T17:11:50;22.20;61.50
44427;DHT22;30133;47.866;-4.222;2022-10-31T17:14:17;22.30;61.60
44427;DHT22;30133;47.866;-4.222;2022-10-31T17:16:44;22.20;61.60
44427;DHT22;30133;47.866;-4.222;2022-10-31T17:19:10;22.20;61.50
44427;DHT22;30133;47.866;-4.222;2022-10-31T17:21:38;22.20;61.50
44427;DHT22;30133;47.866;-4.222;2022-10-31T17:24:05;22.20;61.40
44427;DHT22;30133;47.866;-4.222;2022-10-31T17:26:32;22.20;61.30
44427;DHT22;30133;47.866;-4.222;2022-10-31T17:28:58;22.20;61.20
44427;DHT22;30133;47.866;-4.222;2022-10-31T17:31:30;22.20;61.20
44427;DHT22;30133;47.866;-4.222;2022-10-31T17:33:58;22.20;61.10
44427;DHT22;30133;47.866;-4.222;2022-10-31T17:36:25;22.10;60.90
44427;DHT22;30133;47.866;-4.222;2022-10-31T17:38:51;22.20;61.00
44427;DHT22;30133;47.866;-4.222;2022-10-31T17:41:17;22.20;60.90
44427;DHT22;30133;47.866;-4.222;2022-10-31T17:43:43;22.20;60.80
44427;DHT22;30133;47.866;-4.222;2022-10-31T17:46:09;22.10;60.80
44427;DHT22;30133;47.866;-4.222;2022-10-31T17:48:35;22.10;60.70
44427;DHT22;30133;47.866;-4.222;2022-10-31T17:51:05;22.20;60.60
44427;DHT22;30133;47.866;-4.222;2022-10-31T17:53:33;22.10;60.50
44427;DHT22;30133;47.866;-4.222;2022-10-31T17:56:02;22.10;60.50
44427;DHT22;30133;47.866;-4.222;2022-10-31T17:58:29;22.10;60.40
44427;DHT22;30133;47.866;-4.222;2022-10-31T18:00:55;22.10;60.30
44427;DHT22;30133;47.866;-4.222;2022-10-31T18:03:22;22.10;60.20
44427;DHT22;30133;47.866;-4.222;2022-10-31T18:05:56;22.10;60.00
44427;DHT22;30133;47.866;-4.222;2022-10-31T18:08:28;22.10;60.00
44427;DHT22;30133;47.866;-4.222;2022-10-31T18:10:56;22.10;60.00
44427;DHT22;30133;47.866;-4.222;2022-10-31T18:13:26;22.10;59.90
44427;DHT22;30133;47.866;-4.222;2022-10-31T18:15:53;22.10;59.90
44427;DHT22;30133;47.866;-4.222;2022-10-31T18:18:20;22.10;59.80
44427;DHT22;30133;47.866;-4.222;2022-10-31T18:20:46;22.10;59.80
44427;DHT22;30133;47.866;-4.222;2022-10-31T18:23:13;22.10;59.70
44427;DHT22;30133;47.866;-4.222;2022-10-31T18:25:39;22.10;59.80